sensor_id;sensor_type;location;lat;lon;timestamp;pressure;altitude;pressure_sealevel;temperature;humidity
4834;BME280;12895;51.064;7.028;2023-07-22T00:01:02;100650.91;;;14.45;64.98
4834;BME280;12895;51.064;7.028;2023-07-22T00:03:49;100642.53;;;14.29;65.49
4834;BME280;12895;51.064;7.028;2023-07-22T00:06:36;100646.84;;;14.41;65.95
4834;BME280;12895;51.064;7.028;2023-07-22T00:09:24;100647.63;;;14.36;64.94
4834;BME280;12895;51.064;7.028;2023-07-22T00:12:11;100650.88;;;14.29;65.43
4834;BME280;12895;51.064;7.028;2023-07-22T00:14:58;100651.13;;;14.25;65.64
4834;BME280;12895;51.064;7.028;2023-07-22T00:17:45;100652.81;;;14.12;66.70
4834;BME280;12895;51.064;7.028;2023-07-22T00:20:32;100651.09;;;14.20;65.92
4834;BME280;12895;51.064;7.028;2023-07-22T00:23:19;100647.31;;;14.17;65.74
4834;BME280;12895;51.064;7.028;2023-07-22T00:26:08;100646.75;;;14.13;67.25
4834;BME280;12895;51.064;7.028;2023-07-22T00:28:56;100642.50;;;14.18;66.79
4834;BME280;12895;51.064;7.028;2023-07-22T00:31:43;100644.56;;;14.23;67.01
4834;BME280;12895;51.064;7.028;2023-07-22T00:34:30;100638.47;;;14.19;67.05
4834;BME280;12895;51.064;7.028;2023-07-22T00:37:18;100643.03;;;14.22;66.58
4834;BME280;12895;51.064;7.028;2023-07-22T00:40:05;100645.06;;;14.27;67.29
4834;BME280;12895;51.064;7.028;2023-07-22T00:42:58;100640.31;;;14.38;66.49
4834;BME280;12895;51.064;7.028;2023-07-22T00:45:46;100639.03;;;14.45;66.65
4834;BME280;12895;51.064;7.028;2023-07-22T00:48:33;100647.16;;;14.54;66.76
4834;BME280;12895;51.064;7.028;2023-07-22T00:51:20;100648.66;;;14.44;66.25
4834;BME280;12895;51.064;7.028;2023-07-22T00:54:08;100636.25;;;14.34;66.88
4834;BME280;12895;51.064;7.028;2023-07-22T00:56:56;100638.00;;;14.37;66.54
4834;BME280;12895;51.064;7.028;2023-07-22T00:59:45;100629.16;;;14.33;66.98
4834;BME280;12895;51.064;7.028;2023-07-22T01:02:32;100635.47;;;14.28;66.56
4834;BME280;12895;51.064;7.028;2023-07-22T01:05:20;100635.97;;;14.32;66.91
4834;BME280;12895;51.064;7.028;2023-07-22T01:08:07;100636.97;;;14.29;67.38
4834;BME280;12895;51.064;7.028;2023-07-22T01:10:54;100638.50;;;14.41;66.40
4834;BME280;12895;51.064;7.028;2023-07-22T01:13:41;100633.72;;;14.36;66.16
4834;BME280;12895;51.064;7.028;2023-07-22T01:16:30;100636.00;;;14.43;66.49
4834;BME280;12895;51.064;7.028;2023-07-22T01:19:18;100633.00;;;14.52;66.52
4834;BME280;12895;51.064;7.028;2023-07-22T01:22:06;100635.25;;;14.53;65.97
4834;BME280;12895;51.064;7.028;2023-07-22T01:24:55;100631.72;;;14.58;66.06
4834;BME280;12895;51.064;7.028;2023-07-22T01:27:43;100628.19;;;14.63;65.92
4834;BME280;12895;51.064;7.028;2023-07-22T01:30:30;100634.03;;;14.76;65.48
4834;BME280;12895;51.064;7.028;2023-07-22T01:33:17;100637.06;;;14.73;65.96
4834;BME280;12895;51.064;7.028;2023-07-22T01:36:04;100630.72;;;14.78;65.43
4834;BME280;12895;51.064;7.028;2023-07-22T01:38:51;100636.53;;;14.80;65.35
4834;BME280;12895;51.064;7.028;2023-07-22T01:41:40;100634.03;;;14.82;65.52
4834;BME280;12895;51.064;7.028;2023-07-22T01:44:27;100623.13;;;14.78;66.25
4834;BME280;12895;51.064;7.028;2023-07-22T01:47:14;100624.66;;;14.79;65.89
4834;BME280;12895;51.064;7.028;2023-07-22T01:50:02;100628.44;;;14.82;64.88
4834;BME280;12895;51.064;7.028;2023-07-22T01:52:49;100620.84;;;14.88;65.93
4834;BME280;12895;51.064;7.028;2023-07-22T01:55:36;100617.81;;;14.86;66.15
4834;BME280;12895;51.064;7.028;2023-07-22T01:58:24;100620.34;;;15.06;65.52
4834;BME280;12895;51.064;7.028;2023-07-22T02:01:12;100610.72;;;15.07;65.30
4834;BME280;12895;51.064;7.028;2023-07-22T02:04:01;100621.34;;;15.08;64.76
4834;BME280;12895;51.064;7.028;2023-07-22T02:06:48;100617.31;;;14.93;65.35
4834;BME280;12895;51.064;7.028;2023-07-22T02:09:35;100625.66;;;14.82;65.76
4834;BME280;12895;51.064;7.028;2023-07-22T02:12:22;100621.09;;;14.84;65.61
4834;BME280;12895;51.064;7.028;2023-07-22T02:15:11;100615.28;;;14.77;66.20
4834;BME280;12895;51.064;7.028;2023-07-22T02:17:58;100613.53;;;14.79;65.38
4834;BME280;12895;51.064;7.028;2023-07-22T02:20:45;100622.88;;;14.82;66.15
4834;BME280;12895;51.064;7.028;2023-07-22T02:23:32;100616.31;;;14.74;66.31
4834;BME280;12895;51.064;7.028;2023-07-22T02:26:19;100613.00;;;14.59;66.99
4834;BME280;12895;51.064;7.028;2023-07-22T02:29:06;100616.81;;;14.56;67.45
4834;BME280;12895;51.064;7.028;2023-07-22T02:31:55;100613.25;;;14.50;67.21
4834;BME280;12895;51.064;7.028;2023-07-22T02:34:43;100613.00;;;14.42;67.23
4834;BME280;12895;51.064;7.028;2023-07-22T02:37:30;100610.69;;;14.41;68.06
4834;BME280;12895;51.064;7.028;2023-07-22T02:40:17;100614.25;;;14.41;67.60
4834;BME280;12895;51.064;7.028;2023-07-22T02:43:04;100624.34;;;14.39;68.34
4834;BME280;12895;51.064;7.028;2023-07-22T02:45:53;100621.34;;;14.48;68.09
4834;BME280;12895;51.064;7.028;2023-07-22T02:48:41;100621.34;;;14.48;68.35
4834;BME280;12895;51.064;7.028;2023-07-22T02:51:28;100616.56;;;14.54;68.12
4834;BME280;12895;51.064;7.028;2023-07-22T02:54:16;100616.81;;;14.56;67.89
4834;BME280;12895;51.064;7.028;2023-07-22T02:57:03;100623.88;;;14.62;68.20
4834;BME280;12895;51.064;7.028;2023-07-22T02:59:51;100627.69;;;14.76;67.78
4834;BME280;12895;51.064;7.028;2023-07-22T03:02:38;100630.47;;;14.76;66.98
4834;BME280;12895;51.064;7.028;2023-07-22T03:05:27;100623.63;;;14.77;67.73
4834;BME280;12895;51.064;7.028;2023-07-22T03:08:14;100625.16;;;14.89;66.79
4834;BME280;12895;51.064;7.028;2023-07-22T03:11:01;100628.94;;;14.86;67.41
4834;BME280;12895;51.064;7.028;2023-07-22T03:13:49;100631.25;;;14.82;67.06
4834;BME280;12895;51.064;7.028;2023-07-22T03:16:36;100624.16;;;14.81;67.20
4834;BME280;12895;51.064;7.028;2023-07-22T03:19:23;100621.88;;;14.74;67.32
4834;BME280;12895;51.064;7.028;2023-07-22T03:22:14;100629.44;;;14.79;68.07
4834;BME280;12895;51.064;7.028;2023-07-22T03:25:01;100629.72;;;14.86;67.94
4834;BME280;12895;51.064;7.028;2023-07-22T03:27:51;100630.44;;;14.98;67.49
4834;BME280;12895;51.064;7.028;2023-07-22T03:30:38;100627.94;;;14.89;67.33
4834;BME280;12895;51.064;7.028;2023-07-22T03:33:25;100621.34;;;15.03;66.99
4834;BME280;12895;51.064;7.028;2023-07-22T03:36:12;100626.41;;;14.88;67.79
4834;BME280;12895;51.064;7.028;2023-07-22T03:39:01;100621.38;;;14.81;68.06
4834;BME280;12895;51.064;7.028;2023-07-22T03:41:48;100619.34;;;14.76;68.30
4834;BME280;12895;51.064;7.028;2023-07-22T03:44:35;100622.63;;;14.74;68.42
4834;BME280;12895;51.064;7.028;2023-07-22T03:47:22;100620.59;;;14.58;69.03
4834;BME280;12895;51.064;7.028;2023-07-22T03:50:09;100626.91;;;14.59;69.12
4834;BME280;12895;51.064;7.028;2023-07-22T03:52:57;100633.97;;;14.49;69.46
4834;BME280;12895;51.064;7.028;2023-07-22T03:55:46;100628.16;;;14.47;69.64
4834;BME280;12895;51.064;7.028;2023-07-22T03:58:33;100632.22;;;14.51;69.18
4834;BME280;12895;51.064;7.028;2023-07-22T04:01:20;100630.47;;;14.65;69.43
4834;BME280;12895;51.064;7.028;2023-07-22T04:04:07;100634.03;;;14.71;69.24
4834;BME280;12895;51.064;7.028;2023-07-22T04:06:54;100634.75;;;14.77;69.19
4834;BME280;12895;51.064;7.028;2023-07-22T04:09:41;100634.28;;;14.78;68.98
4834;BME280;12895;51.064;7.028;2023-07-22T04:12:29;100636.53;;;14.80;69.45
4834;BME280;12895;51.064;7.028;2023-07-22T04:15:16;100634.03;;;14.87;68.52
4834;BME280;12895;51.064;7.028;2023-07-22T04:18:04;100630.22;;;14.57;68.78
4834;BME280;12895;51.064;7.028;2023-07-22T04:20:55;100631.97;;;14.55;69.44
4834;BME280;12895;51.064;7.028;2023-07-22T04:23:43;100641.09;;;14.72;69.32
4834;BME280;12895;51.064;7.028;2023-07-22T04:26:30;100630.97;;;14.69;69.94
4834;BME280;12895;51.064;7.028;2023-07-22T04:29:19;100627.44;;;14.79;69.32
4834;BME280;12895;51.064;7.028;2023-07-22T04:32:07;100635.53;;;14.83;69.17
4834;BME280;12895;51.064;7.028;2023-07-22T04:34:54;100635.53;;;14.94;68.71
4834;BME280;12895;51.064;7.028;2023-07-22T04:37:41;100624.13;;;15.08;68.39
4834;BME280;12895;51.064;7.028;2023-07-22T04:40:28;100638.53;;;15.18;67.95
4834;BME280;12895;51.064;7.028;2023-07-22T04:43:16;100640.31;;;15.21;67.74
4834;BME280;12895;51.064;7.028;2023-07-22T04:46:04;100636.75;;;15.37;67.26
4834;BME280;12895;51.064;7.028;2023-07-22T04:48:53;100638.53;;;15.40;66.86
4834;BME280;12895;51.064;7.028;2023-07-22T04:51:40;100640.53;;;15.45;66.75
4834;BME280;12895;51.064;7.028;2023-07-22T04:54:27;100634.97;;;15.45;66.70
4834;BME280;12895;51.064;7.028;2023-07-22T04:57:15;100637.25;;;15.52;66.53
4834;BME280;12895;51.064;7.028;2023-07-22T05:00:04;100636.47;;;15.46;66.94
4834;BME280;12895;51.064;7.028;2023-07-22T05:02:53;100638.50;;;15.51;67.12
4834;BME280;12895;51.064;7.028;2023-07-22T05:05:41;100634.94;;;15.56;66.92
4834;BME280;12895;51.064;7.028;2023-07-22T05:08:28;100643.56;;;15.58;66.15
4834;BME280;12895;51.064;7.028;2023-07-22T05:11:16;100634.44;;;15.52;66.74
4834;BME280;12895;51.064;7.028;2023-07-22T05:14:04;100624.03;;;15.63;66.32
4834;BME280;12895;51.064;7.028;2023-07-22T05:16:51;100638.47;;;15.62;66.32
4834;BME280;12895;51.064;7.028;2023-07-22T05:19:39;100631.13;;;15.64;66.03
4834;BME280;12895;51.064;7.028;2023-07-22T05:22:26;100629.09;;;15.59;66.14
4834;BME280;12895;51.064;7.028;2023-07-22T05:25:13;100633.19;;;15.53;66.42
4834;BME280;12895;51.064;7.028;2023-07-22T05:28:00;100625.88;;;15.39;66.56
4834;BME280;12895;51.064;7.028;2023-07-22T05:30:47;100631.94;;;15.43;67.09
4834;BME280;12895;51.064;7.028;2023-07-22T05:33:34;100633.47;;;15.44;67.28
4834;BME280;12895;51.064;7.028;2023-07-22T05:36:23;100634.41;;;15.63;65.90
4834;BME280;12895;51.064;7.028;2023-07-22T05:39:10;100638.94;;;15.77;66.06
4834;BME280;12895;51.064;7.028;2023-07-22T05:41:57;100643.38;;;16.02;65.27
4834;BME280;12895;51.064;7.028;2023-07-22T05:44:44;100643.91;;;15.95;64.63
4834;BME280;12895;51.064;7.028;2023-07-22T05:47:31;100643.50;;;15.74;65.44
4834;BME280;12895;51.064;7.028;2023-07-22T05:50:18;100651.59;;;15.78;66.12
4834;BME280;12895;51.064;7.028;2023-07-22T05:53:06;100651.59;;;15.78;66.06
4834;BME280;12895;51.064;7.028;2023-07-22T05:55:53;100647.75;;;15.86;65.84
4834;BME280;12895;51.064;7.028;2023-07-22T05:58:40;100639.84;;;15.96;65.26
4834;BME280;12895;51.064;7.028;2023-07-22T06:01:27;100636.34;;;15.90;65.21
4834;BME280;12895;51.064;7.028;2023-07-22T06:04:14;100635.56;;;15.95;64.52
4834;BME280;12895;51.064;7.028;2023-07-22T06:07:01;100641.09;;;16.06;65.91
4834;BME280;12895;51.064;7.028;2023-07-22T06:09:52;100646.75;;;16.41;63.56
4834;BME280;12895;51.064;7.028;2023-07-22T06:12:44;100648.50;;;16.49;63.34
4834;BME280;12895;51.064;7.028;2023-07-22T06:15:33;100633.78;;;16.49;62.95
4834;BME280;12895;51.064;7.028;2023-07-22T06:18:21;100649.00;;;16.48;63.59
4834;BME280;12895;51.064;7.028;2023-07-22T06:21:07;100635.44;;;16.63;63.53
4834;BME280;12895;51.064;7.028;2023-07-22T06:23:54;100643.75;;;16.68;62.70
4834;BME280;12895;51.064;7.028;2023-07-22T06:26:43;100645.88;;;16.57;62.66
4834;BME280;12895;51.064;7.028;2023-07-22T06:29:30;100639.31;;;16.54;63.72
4834;BME280;12895;51.064;7.028;2023-07-22T06:32:17;100639.31;;;16.54;63.43
4834;BME280;12895;51.064;7.028;2023-07-22T06:35:04;100645.34;;;16.58;64.57
4834;BME280;12895;51.064;7.028;2023-07-22T06:37:51;100638.41;;;16.75;64.11
4834;BME280;12895;51.064;7.028;2023-07-22T06:40:39;100642.28;;;16.96;63.29
4834;BME280;12895;51.064;7.028;2023-07-22T06:43:27;100640.56;;;17.17;61.34
4834;BME280;12895;51.064;7.028;2023-07-22T06:46:14;100636.84;;;17.33;61.21
4834;BME280;12895;51.064;7.028;2023-07-22T06:49:01;100641.47;;;17.55;60.57
4834;BME280;12895;51.064;7.028;2023-07-22T06:51:48;100647.25;;;17.62;61.21
4834;BME280;12895;51.064;7.028;2023-07-22T06:54:38;100642.44;;;17.81;59.87
4834;BME280;12895;51.064;7.028;2023-07-22T06:57:27;100646.75;;;17.82;59.99
4834;BME280;12895;51.064;7.028;2023-07-22T07:00:15;100643.38;;;17.89;59.54
4834;BME280;12895;51.064;7.028;2023-07-22T07:03:02;100642.03;;;18.14;59.46
4834;BME280;12895;51.064;7.028;2023-07-22T07:05:53;100641.50;;;18.34;58.00
4834;BME280;12895;51.064;7.028;2023-07-22T07:08:40;100639.63;;;18.42;58.29
4834;BME280;12895;51.064;7.028;2023-07-22T07:11:28;100640.31;;;18.80;57.26
4834;BME280;12895;51.064;7.028;2023-07-22T07:14:15;100649.50;;;18.93;55.70
4834;BME280;12895;51.064;7.028;2023-07-22T07:17:04;100646.69;;;18.80;57.11
4834;BME280;12895;51.064;7.028;2023-07-22T07:19:51;100652.56;;;18.95;57.50
4834;BME280;12895;51.064;7.028;2023-07-22T07:22:44;100644.97;;;18.90;57.69
4834;BME280;12895;51.064;7.028;2023-07-22T07:25:31;100648.91;;;19.13;55.71
4834;BME280;12895;51.064;7.028;2023-07-22T07:28:18;100644.16;;;19.08;55.75
4834;BME280;12895;51.064;7.028;2023-07-22T07:31:05;100641.22;;;19.32;55.94
4834;BME280;12895;51.064;7.028;2023-07-22T07:33:54;100642.41;;;19.37;54.41
4834;BME280;12895;51.064;7.028;2023-07-22T07:36:41;100641.88;;;19.25;54.69
4834;BME280;12895;51.064;7.028;2023-07-22T07:39:28;100647.06;;;19.34;53.55
4834;BME280;12895;51.064;7.028;2023-07-22T07:42:15;100645.75;;;19.35;55.16
4834;BME280;12895;51.064;7.028;2023-07-22T07:45:03;100645.44;;;19.39;54.82
4834;BME280;12895;51.064;7.028;2023-07-22T07:47:50;100651.59;;;19.50;53.14
4834;BME280;12895;51.064;7.028;2023-07-22T07:50:38;100638.88;;;19.49;52.31
4834;BME280;12895;51.064;7.028;2023-07-22T07:53:26;100643.41;;;19.65;53.77
4834;BME280;12895;51.064;7.028;2023-07-22T07:56:13;100644.91;;;19.79;53.25
4834;BME280;12895;51.064;7.028;2023-07-22T07:59:01;100643.38;;;19.91;51.55
4834;BME280;12895;51.064;7.028;2023-07-22T08:01:48;100647.69;;;20.18;50.67
4834;BME280;12895;51.064;7.028;2023-07-22T08:04:35;100637.50;;;20.41;49.87
4834;BME280;12895;51.064;7.028;2023-07-22T08:07:24;100646.53;;;20.47;48.30
4834;BME280;12895;51.064;7.028;2023-07-22T08:10:11;100647.56;;;20.57;47.73
4834;BME280;12895;51.064;7.028;2023-07-22T08:13:04;100647.88;;;20.66;47.45
4834;BME280;12895;51.064;7.028;2023-07-22T08:16:20;100652.97;;;20.55;47.58
4834;BME280;12895;51.064;7.028;2023-07-22T08:19:13;100636.66;;;20.33;47.57
4834;BME280;12895;51.064;7.028;2023-07-22T08:22:16;100630.38;;;20.40;46.29
4834;BME280;12895;51.064;7.028;2023-07-22T08:25:05;100651.06;;;20.50;47.83
4834;BME280;12895;51.064;7.028;2023-07-22T08:27:53;100643.84;;;20.41;46.24
4834;BME280;12895;51.064;7.028;2023-07-22T08:33:29;100638.16;;;20.34;46.84
4834;BME280;12895;51.064;7.028;2023-07-22T08:34:48;100639.56;;;20.27;45.40
4834;BME280;12895;51.064;7.028;2023-07-22T08:37:43;100631.94;;;20.15;46.28
4834;BME280;12895;51.064;7.028;2023-07-22T08:41:13;100620.38;;;20.18;46.53
4834;BME280;12895;51.064;7.028;2023-07-22T08:44:18;100622.75;;;20.14;44.99
4834;BME280;12895;51.064;7.028;2023-07-22T08:47:07;100632.75;;;20.36;45.92
4834;BME280;12895;51.064;7.028;2023-07-22T08:50:01;100635.03;;;20.58;46.52
4834;BME280;12895;51.064;7.028;2023-07-22T08:52:49;100641.63;;;20.81;46.05
4834;BME280;12895;51.064;7.028;2023-07-22T08:55:36;100630.41;;;20.81;45.71
4834;BME280;12895;51.064;7.028;2023-07-22T08:58:27;100631.47;;;20.78;45.05
4834;BME280;12895;51.064;7.028;2023-07-22T09:01:14;100637.69;;;20.97;43.62
4834;BME280;12895;51.064;7.028;2023-07-22T09:04:02;100632.78;;;20.77;43.60
4834;BME280;12895;51.064;7.028;2023-07-22T09:06:49;100641.47;;;20.66;43.67
4834;BME280;12895;51.064;7.028;2023-07-22T09:09:36;100639.25;;;20.64;44.41
4834;BME280;12895;51.064;7.028;2023-07-22T09:12:24;100629.06;;;20.61;44.58
4834;BME280;12895;51.064;7.028;2023-07-22T09:15:14;100628.56;;;20.83;44.68
4834;BME280;12895;51.064;7.028;2023-07-22T09:18:04;100627.59;;;21.01;43.43
4834;BME280;12895;51.064;7.028;2023-07-22T09:20:51;100628.22;;;21.28;43.40
4834;BME280;12895;51.064;7.028;2023-07-22T09:23:38;100616.97;;;21.56;42.65
4834;BME280;12895;51.064;7.028;2023-07-22T09:26:25;100619.28;;;21.65;42.46
4834;BME280;12895;51.064;7.028;2023-07-22T09:29:12;100622.56;;;21.84;42.77
4834;BME280;12895;51.064;7.028;2023-07-22T09:32:01;100624.84;;;21.85;40.71
4834;BME280;12895;51.064;7.028;2023-07-22T09:34:54;100611.06;;;22.10;41.78
4834;BME280;12895;51.064;7.028;2023-07-22T09:37:41;100606.81;;;21.81;39.50
4834;BME280;12895;51.064;7.028;2023-07-22T09:40:28;100613.50;;;21.70;39.50
4834;BME280;12895;51.064;7.028;2023-07-22T09:43:15;100616.75;;;21.82;40.12
4834;BME280;12895;51.064;7.028;2023-07-22T09:46:06;100620.16;;;21.60;40.54
4834;BME280;12895;51.064;7.028;2023-07-22T09:48:54;100626.31;;;21.79;39.85
4834;BME280;12895;51.064;7.028;2023-07-22T09:51:41;100619.19;;;21.78;39.48
4834;BME280;12895;51.064;7.028;2023-07-22T09:54:28;100609.47;;;21.94;39.77
4834;BME280;12895;51.064;7.028;2023-07-22T09:57:16;100618.47;;;21.85;39.53
4834;BME280;12895;51.064;7.028;2023-07-22T10:00:04;100609.94;;;21.70;39.44
4834;BME280;12895;51.064;7.028;2023-07-22T10:02:58;100617.38;;;21.95;39.93
4834;BME280;12895;51.064;7.028;2023-07-22T10:05:48;100612.50;;;21.96;39.75
4834;BME280;12895;51.064;7.028;2023-07-22T10:08:37;100611.47;;;22.21;39.46
4834;BME280;12895;51.064;7.028;2023-07-22T10:11:27;100617.13;;;22.29;39.58
4834;BME280;12895;51.064;7.028;2023-07-22T10:14:14;100617.22;;;22.59;39.38
4834;BME280;12895;51.064;7.028;2023-07-22T10:17:03;100617.44;;;22.75;37.20
4834;BME280;12895;51.064;7.028;2023-07-22T10:19:52;100606.34;;;22.70;36.71
4834;BME280;12895;51.064;7.028;2023-07-22T10:22:42;100608.63;;;22.72;36.49
4834;BME280;12895;51.064;7.028;2023-07-22T10:25:30;100611.63;;;22.73;35.91
4834;BME280;12895;51.064;7.028;2023-07-22T10:28:17;100610.50;;;22.76;36.19
4834;BME280;12895;51.064;7.028;2023-07-22T10:31:06;100610.88;;;22.88;36.55
4834;BME280;12895;51.064;7.028;2023-07-22T10:33:56;100587.56;;;22.87;37.70
4834;BME280;12895;51.064;7.028;2023-07-22T10:36:43;100605.81;;;22.72;37.30
4834;BME280;12895;51.064;7.028;2023-07-22T10:39:35;100605.59;;;22.69;35.64
4834;BME280;12895;51.064;7.028;2023-07-22T10:42:24;100604.28;;;22.56;36.80
4834;BME280;12895;51.064;7.028;2023-07-22T10:45:26;100583.41;;;22.59;36.68
4834;BME280;12895;51.064;7.028;2023-07-22T10:48:14;100584.53;;;22.48;35.85
4834;BME280;12895;51.064;7.028;2023-07-22T10:51:05;100590.47;;;22.37;35.58
4834;BME280;12895;51.064;7.028;2023-07-22T10:53:52;100599.00;;;22.45;35.70
4834;BME280;12895;51.064;7.028;2023-07-22T10:56:42;100596.56;;;22.49;35.33
4834;BME280;12895;51.064;7.028;2023-07-22T10:59:33;100590.22;;;22.78;36.06
4834;BME280;12895;51.064;7.028;2023-07-22T11:02:23;100593.97;;;23.25;34.49
4834;BME280;12895;51.064;7.028;2023-07-22T11:05:11;100586.78;;;23.47;33.60
4834;BME280;12895;51.064;7.028;2023-07-22T11:08:03;100571.78;;;22.99;34.26
4834;BME280;12895;51.064;7.028;2023-07-22T11:10:54;100568.41;;;23.23;35.08
4834;BME280;12895;51.064;7.028;2023-07-22T11:13:42;100574.63;;;23.14;34.41
4834;BME280;12895;51.064;7.028;2023-07-22T11:16:30;100572.94;;;22.81;34.04
4834;BME280;12895;51.064;7.028;2023-07-22T11:19:18;100564.66;;;22.83;34.60
4834;BME280;12895;51.064;7.028;2023-07-22T11:22:05;100561.47;;;22.65;35.97
4834;BME280;12895;51.064;7.028;2023-07-22T11:24:53;100556.75;;;22.60;37.02
4834;BME280;12895;51.064;7.028;2023-07-22T11:27:40;100549.25;;;22.62;37.14
4834;BME280;12895;51.064;7.028;2023-07-22T11:30:28;100554.50;;;22.66;38.32
4834;BME280;12895;51.064;7.028;2023-07-22T11:33:15;100551.50;;;23.16;37.00
4834;BME280;12895;51.064;7.028;2023-07-22T11:36:02;100546.91;;;23.50;35.24
4834;BME280;12895;51.064;7.028;2023-07-22T11:38:50;100550.28;;;23.56;34.09
4834;BME280;12895;51.064;7.028;2023-07-22T11:41:37;100533.75;;;23.45;35.00
4834;BME280;12895;51.064;7.028;2023-07-22T11:44:27;100544.13;;;23.13;34.21
4834;BME280;12895;51.064;7.028;2023-07-22T11:47:16;100529.13;;;23.10;35.10
4834;BME280;12895;51.064;7.028;2023-07-22T11:50:04;100530.34;;;23.54;34.06
4834;BME280;12895;51.064;7.028;2023-07-22T11:52:51;100527.19;;;23.97;33.02
4834;BME280;12895;51.064;7.028;2023-07-22T11:55:38;100516.25;;;24.01;33.23
4834;BME280;12895;51.064;7.028;2023-07-22T11:58:26;100515.75;;;24.20;31.94
4834;BME280;12895;51.064;7.028;2023-07-22T12:01:13;100511.91;;;24.32;31.38
4834;BME280;12895;51.064;7.028;2023-07-22T12:04:10;100509.75;;;24.16;32.28
4834;BME280;12895;51.064;7.028;2023-07-22T12:06:58;100525.94;;;24.15;31.88
4834;BME280;12895;51.064;7.028;2023-07-22T12:09:47;100508.84;;;24.38;31.28
4834;BME280;12895;51.064;7.028;2023-07-22T12:12:35;100513.41;;;24.33;30.79
4834;BME280;12895;51.064;7.028;2023-07-22T12:15:22;100519.03;;;24.33;31.33
4834;BME280;12895;51.064;7.028;2023-07-22T12:18:10;100515.44;;;24.65;32.24
4834;BME280;12895;51.064;7.028;2023-07-22T12:20:58;100504.84;;;24.73;31.22
4834;BME280;12895;51.064;7.028;2023-07-22T12:23:46;100493.28;;;24.78;30.80
4834;BME280;12895;51.064;7.028;2023-07-22T12:26:33;100498.81;;;25.10;30.90
4834;BME280;12895;51.064;7.028;2023-07-22T12:29:20;100493.31;;;24.95;30.38
4834;BME280;12895;51.064;7.028;2023-07-22T12:32:10;100498.97;;;24.95;30.94
4834;BME280;12895;51.064;7.028;2023-07-22T12:34:57;100489.19;;;25.13;30.57
4834;BME280;12895;51.064;7.028;2023-07-22T12:37:46;100483.34;;;25.11;30.57
4834;BME280;12895;51.064;7.028;2023-07-22T12:40:33;100488.53;;;25.22;29.63
4834;BME280;12895;51.064;7.028;2023-07-22T12:43:20;100481.72;;;25.42;31.33
4834;BME280;12895;51.064;7.028;2023-07-22T12:46:07;100466.97;;;25.27;30.29
4834;BME280;12895;51.064;7.028;2023-07-22T12:48:54;100470.03;;;25.21;30.40
4834;BME280;12895;51.064;7.028;2023-07-22T12:51:41;100467.72;;;25.44;30.99
4834;BME280;12895;51.064;7.028;2023-07-22T12:54:30;100464.06;;;25.34;29.56
4834;BME280;12895;51.064;7.028;2023-07-22T12:57:19;100464.38;;;25.55;31.39
4834;BME280;12895;51.064;7.028;2023-07-22T13:00:07;100470.19;;;25.57;29.78
4834;BME280;12895;51.064;7.028;2023-07-22T13:02:56;100474.19;;;25.54;29.25
4834;BME280;12895;51.064;7.028;2023-07-22T13:05:43;100485.16;;;24.99;29.53
4834;BME280;12895;51.064;7.028;2023-07-22T13:08:30;100476.34;;;25.12;29.31
4834;BME280;12895;51.064;7.028;2023-07-22T13:11:19;100460.00;;;25.28;28.90
4834;BME280;12895;51.064;7.028;2023-07-22T13:14:09;100466.66;;;25.23;29.18
4834;BME280;12895;51.064;7.028;2023-07-22T13:16:55;100459.88;;;25.52;28.81
4834;BME280;12895;51.064;7.028;2023-07-22T13:19:42;100457.66;;;25.77;28.95
4834;BME280;12895;51.064;7.028;2023-07-22T13:22:29;100466.25;;;26.22;27.26
4834;BME280;12895;51.064;7.028;2023-07-22T13:25:16;100457.66;;;26.30;27.38
4834;BME280;12895;51.064;7.028;2023-07-22T13:28:05;100447.66;;;26.29;26.06
4834;BME280;12895;51.064;7.028;2023-07-22T13:30:52;100448.63;;;26.50;27.42
4834;BME280;12895;51.064;7.028;2023-07-22T13:33:39;100444.25;;;26.40;27.33
4834;BME280;12895;51.064;7.028;2023-07-22T13:36:26;100443.31;;;26.64;26.27
4834;BME280;12895;51.064;7.028;2023-07-22T13:39:13;100445.00;;;26.86;26.52
4834;BME280;12895;51.064;7.028;2023-07-22T13:42:00;100448.00;;;27.07;27.82
4834;BME280;12895;51.064;7.028;2023-07-22T13:44:48;100436.69;;;27.26;25.80
4834;BME280;12895;51.064;7.028;2023-07-22T13:47:35;100432.78;;;27.31;25.49
4834;BME280;12895;51.064;7.028;2023-07-22T13:50:22;100435.13;;;27.63;26.36
4834;BME280;12895;51.064;7.028;2023-07-22T13:53:09;100425.56;;;27.68;25.48
4834;BME280;12895;51.064;7.028;2023-07-22T13:55:56;100427.41;;;27.35;25.30
4834;BME280;12895;51.064;7.028;2023-07-22T13:58:43;100426.78;;;26.89;25.57
4834;BME280;12895;51.064;7.028;2023-07-22T14:01:32;100412.72;;;26.72;26.46
4834;BME280;12895;51.064;7.028;2023-07-22T14:04:19;100411.25;;;27.09;25.74
4834;BME280;12895;51.064;7.028;2023-07-22T14:07:06;100404.63;;;27.82;25.60
4834;BME280;12895;51.064;7.028;2023-07-22T14:09:53;100408.78;;;27.72;24.78
4834;BME280;12895;51.064;7.028;2023-07-22T14:12:40;100404.06;;;27.65;25.24
4834;BME280;12895;51.064;7.028;2023-07-22T14:15:27;100397.59;;;27.64;25.11
4834;BME280;12895;51.064;7.028;2023-07-22T14:18:15;100388.25;;;27.43;25.92
4834;BME280;12895;51.064;7.028;2023-07-22T14:21:03;100384.03;;;27.53;25.66
4834;BME280;12895;51.064;7.028;2023-07-22T14:23:50;100383.78;;;27.40;25.85
4834;BME280;12895;51.064;7.028;2023-07-22T14:26:37;100406.28;;;27.76;26.32
4834;BME280;12895;51.064;7.028;2023-07-22T14:29:24;100388.66;;;28.08;25.05
4834;BME280;12895;51.064;7.028;2023-07-22T14:32:11;100394.16;;;28.88;25.59
4834;BME280;12895;51.064;7.028;2023-07-22T14:35:00;100386.63;;;30.12;23.79
4834;BME280;12895;51.064;7.028;2023-07-22T14:37:47;100379.28;;;31.03;23.14
4834;BME280;12895;51.064;7.028;2023-07-22T14:40:34;100380.03;;;31.92;22.63
4834;BME280;12895;51.064;7.028;2023-07-22T14:43:21;100383.19;;;31.71;22.04
4834;BME280;12895;51.064;7.028;2023-07-22T14:46:08;100365.00;;;30.55;22.74
4834;BME280;12895;51.064;7.028;2023-07-22T14:48:55;100376.69;;;29.90;24.45
4834;BME280;12895;51.064;7.028;2023-07-22T14:51:43;100363.38;;;31.00;23.63